Time;durP1;ratioP1;P1;durP2;ratioP2;P2;SDS_P1;SDS_P2;PMS_P1;PMS_P2;Temp;Humidity;BMP_temperature;BMP_pressure;BME280_temperature;BME280_humidity;BME280_pressure;Samples;Min_cycle;Max_cycle;Signal;HPM_P1;HPM_P2
2024/02/13 00:01:40;;;;;;;;;;;;;;;17.21;47.82;99793.72;5034359;28;1040;-47
2024/02/13 00:04:08;;;;;;;;;;;;;;;16.99;46.92;99788.88;5028012;28;1019;-47
2024/02/13 00:06:34;;;;;;;;;;;;;;;16.81;46.54;99791.31;5030224;28;1905;-45
2024/02/13 00:08:59;;;;;;;;;;;;;;;18.20;46.70;99798.97;5018103;28;1020;-46
2024/02/13 00:11:25;;;;;;;;;;;;;;;17.39;47.91;99798.31;5017692;28;1028;-44
2024/02/13 00:13:51;;;;;;;;;;;;;;;17.04;47.52;99794.25;5017547;28;1171;-47
2024/02/13 00:16:20;;;;;;;;;;;;;;;16.87;46.77;99792.03;5034678;28;1160;-48
2024/02/13 00:18:46;;;;;;;;;;;;;;;16.74;46.25;99786.19;5027104;28;1127;-44
2024/02/13 00:21:12;;;;;;;;;;;;;;;17.47;47.04;99782.25;5029353;28;1133;-44
2024/02/13 00:23:38;;;;;;;;;;;;;;;18.24;46.78;99783.47;5017804;28;1020;-47
2024/02/13 00:26:04;;;;;;;;;;;;;;;17.27;47.73;99771.31;5021710;28;1104;-49
2024/02/13 00:28:29;;;;;;;;;;;;;;;16.98;47.16;99763.31;5026059;28;1914;-47
2024/02/13 00:30:56;;;;;;;;;;;;;;;16.84;46.65;99765.19;5030562;28;1147;-46
2024/02/13 00:33:21;;;;;;;;;;;;;;;17.01;46.93;99760.00;5017269;28;1051;-49
2024/02/13 00:35:47;;;;;;;;;;;;;;;18.17;46.97;99761.06;5020701;28;1107;-46
2024/02/13 00:38:15;;;;;;;;;;;;;;;17.17;47.88;99759.72;5017710;28;1171;-45
2024/02/13 00:40:41;;;;;;;;;;;;;;;17.20;48.44;99756.38;5030410;28;1040;-45
2024/02/13 00:43:07;;;;;;;;;;;;;;;18.02;47.26;99754.78;5028276;28;1118;-44
2024/02/13 00:45:32;;;;;;;;;;;;;;;17.25;47.81;99746.09;5019166;28;1067;-43
2024/02/13 00:47:58;;;;;;;;;;;;;;;16.97;47.49;99752.66;5028007;28;1967;-46
2024/02/13 00:50:24;;;;;;;;;;;;;;;16.99;47.36;99748.47;5019316;28;1122;-45
2024/02/13 00:52:50;;;;;;;;;;;;;;;18.43;46.58;99753.84;5017044;28;1103;-42
2024/02/13 00:55:15;;;;;;;;;;;;;;;17.36;48.17;99748.66;5030186;28;1127;-44
2024/02/13 00:57:41;;;;;;;;;;;;;;;17.01;47.60;99749.00;5017025;28;1142;-45
2024/02/13 01:00:10;;;;;;;;;;;;;;;16.82;46.62;99750.97;5021613;28;1123;-44
2024/02/13 01:02:36;;;;;;;;;;;;;;;18.13;47.29;99753.44;5025790;28;1246;-43
2024/02/13 01:05:01;;;;;;;;;;;;;;;17.70;47.71;99752.94;5020632;28;1071;-45
2024/02/13 01:07:28;;;;;;;;;;;;;;;17.24;47.47;99747.22;5036711;28;1909;-44
2024/02/13 01:09:54;;;;;;;;;;;;;;;17.03;46.78;99745.97;5018403;28;1043;-44
2024/02/13 01:12:19;;;;;;;;;;;;;;;18.02;47.25;99748.44;5028038;28;1238;-45
2024/02/13 01:14:45;;;;;;;;;;;;;;;17.90;47.66;99735.22;5018946;28;1088;-48
2024/02/13 01:17:11;;;;;;;;;;;;;;;17.32;47.56;99728.38;5016407;28;1031;-46
2024/02/13 01:19:36;;;;;;;;;;;;;;;17.08;47.08;99734.88;5029670;28;1183;-47
2024/02/13 01:22:02;;;;;;;;;;;;;;;17.28;47.29;99739.19;5016288;28;1210;-47
2024/02/13 01:24:29;;;;;;;;;;;;;;;17.88;47.49;99737.44;5021325;28;1147;-46
2024/02/13 01:26:55;;;;;;;;;;;;;;;17.15;47.67;99739.97;5025314;28;1979;-46
2024/02/13 01:29:20;;;;;;;;;;;;;;;17.07;46.85;99736.81;5030026;28;1091;-47
2024/02/13 01:31:49;;;;;;;;;;;;;;;16.84;46.30;99729.50;5016425;28;1123;-45
2024/02/13 01:34:14;;;;;;;;;;;;;;;16.74;46.21;99723.06;5016503;28;1190;-49
2024/02/13 01:36:40;;;;;;;;;;;;;;;18.28;46.65;99740.44;5027627;28;1263;-44
2024/02/13 01:39:05;;;;;;;;;;;;;;;17.28;47.87;99741.94;5023413;28;1108;-47
2024/02/13 01:41:31;;;;;;;;;;;;;;;16.98;47.43;99733.13;5024209;28;1130;-48
2024/02/13 01:43:57;;;;;;;;;;;;;;;17.51;47.39;99745.59;5029244;28;1127;-46
2024/02/13 01:46:24;;;;;;;;;;;;;;;17.61;47.48;99755.56;5016555;28;1984;-50
2024/02/13 01:48:49;;;;;;;;;;;;;;;17.10;47.39;99749.94;5028047;28;1140;-48
2024/02/13 01:51:15;;;;;;;;;;;;;;;16.84;46.76;99757.75;5028190;28;1323;-45
2024/02/13 01:53:41;;;;;;;;;;;;;;;16.76;46.23;99762.00;5017472;28;1063;-48
2024/02/13 01:56:06;;;;;;;;;;;;;;;16.57;46.06;99759.28;5028111;28;1143;-49
2024/02/13 01:58:32;;;;;;;;;;;;;;;18.06;46.72;99758.53;5016286;28;1051;-46
2024/02/13 02:01:01;;;;;;;;;;;;;;;17.37;47.68;99762.06;5016175;28;1112;-47
2024/02/13 02:03:33;;;;;;;;;;;;;;;17.04;47.11;99770.38;5016344;28;1124;-45
2024/02/13 02:05:59;;;;;;;;;;;;;;;16.86;46.52;99780.25;5029241;28;1151;-48
2024/02/13 02:08:25;;;;;;;;;;;;;;;16.58;46.25;99782.06;5015864;28;1985;-49
2024/02/13 02:10:51;;;;;;;;;;;;;;;16.86;45.98;99784.94;5016305;28;940;-45
2024/02/13 02:13:16;;;;;;;;;;;;;;;18.27;46.56;99785.59;5029057;28;1013;-46
2024/02/13 02:15:42;;;;;;;;;;;;;;;17.25;47.59;99787.31;5016456;28;1421;-44
2024/02/13 02:18:09;;;;;;;;;;;;;;;16.97;47.22;99780.94;5028754;28;980;-45
2024/02/13 02:20:36;;;;;;;;;;;;;;;18.30;46.58;99793.25;5016580;28;1040;-46
2024/02/13 02:23:02;;;;;;;;;;;;;;;17.28;47.56;99794.13;5016085;28;1171;-46
2024/02/13 02:25:28;;;;;;;;;;;;;;;16.94;47.15;99787.00;5029084;28;1139;-45
2024/02/13 02:27:54;;;;;;;;;;;;;;;16.77;46.25;99793.03;5021874;28;1972;-48
2024/02/13 02:30:19;;;;;;;;;;;;;;;17.26;47.11;99793.59;5038742;28;1131;-43
2024/02/13 02:32:47;;;;;;;;;;;;;;;18.04;46.89;99791.03;5020335;28;1173;-47
2024/02/13 02:35:13;;;;;;;;;;;;;;;17.22;47.76;99793.41;5019588;28;949;-45
2024/02/13 02:37:40;;;;;;;;;;;;;;;16.94;47.02;99798.00;5026288;28;1016;-44
2024/02/13 02:40:06;;;;;;;;;;;;;;;16.71;46.25;99797.78;5026042;28;1047;-45
2024/02/13 02:42:32;;;;;;;;;;;;;;;18.11;46.62;99812.63;5019526;28;1143;-46
2024/02/13 02:44:58;;;;;;;;;;;;;;;17.20;47.61;99811.31;5019935;28;1039;-44
2024/02/13 02:47:24;;;;;;;;;;;;;;;16.94;46.94;99819.97;5019473;28;1988;-44
2024/02/13 02:49:50;;;;;;;;;;;;;;;16.79;46.28;99806.44;5019269;28;1386;-49
2024/02/13 02:52:17;;;;;;;;;;;;;;;17.38;46.83;99817.88;5020110;28;1037;-46
2024/02/13 02:54:43;;;;;;;;;;;;;;;17.87;47.06;99812.84;5019685;28;1044;-47
2024/02/13 02:57:11;;;;;;;;;;;;;;;17.04;47.49;99825.31;5019563;28;1057;-44
2024/02/13 02:59:36;;;;;;;;;;;;;;;16.95;46.56;99816.09;5022690;28;918;-44
2024/02/13 03:02:02;;;;;;;;;;;;;;;17.13;47.25;99822.69;5026509;28;1114;-43
2024/02/13 03:04:27;;;;;;;;;;;;;;;18.32;46.46;99818.50;5024744;28;1051;-47
2024/02/13 03:06:53;;;;;;;;;;;;;;;17.27;47.56;99808.97;5019505;28;1987;-47
2024/02/13 03:09:19;;;;;;;;;;;;;;;17.49;47.58;99805.56;5018866;28;1084;-45
2024/02/13 03:11:44;;;;;;;;;;;;;;;17.54;47.78;99810.16;5018635;28;1397;-46
2024/02/13 03:14:10;;;;;;;;;;;;;;;17.15;47.21;99814.94;5032972;28;1077;-46
2024/02/13 03:16:36;;;;;;;;;;;;;;;16.91;46.57;99812.31;5032334;28;1044;-49
2024/02/13 03:19:02;;;;;;;;;;;;;;;18.15;46.95;99810.91;5019151;28;1142;-46
2024/02/13 03:21:28;;;;;;;;;;;;;;;17.36;47.58;99820.94;5025804;28;1028;-45
2024/02/13 03:23:54;;;;;;;;;;;;;;;17.06;46.95;99820.31;5024880;28;874;-45
2024/02/13 03:26:19;;;;;;;;;;;;;;;16.91;46.34;99826.06;5018799;28;1992;-45
2024/02/13 03:28:45;;;;;;;;;;;;;;;16.71;45.91;99822.47;5032246;28;1114;-46
2024/02/13 03:31:11;;;;;;;;;;;;;;;18.30;46.41;99829.03;5018601;28;1112;-44
2024/02/13 03:33:36;;;;;;;;;;;;;;;17.63;47.59;99822.09;5018758;28;1095;-46
2024/02/13 03:36:02;;;;;;;;;;;;;;;17.28;47.15;99818.88;5018399;28;1089;-45
2024/02/13 03:38:27;;;;;;;;;;;;;;;16.95;46.82;99815.31;5031883;28;1107;-45
2024/02/13 03:40:53;;;;;;;;;;;;;;;16.85;46.04;99819.00;5024052;28;1023;-46
2024/02/13 03:43:19;;;;;;;;;;;;;;;16.70;45.77;99826.34;5026075;28;1067;-46
2024/02/13 03:45:44;;;;;;;;;;;;;;;16.96;45.99;99834.22;5024062;28;1035;-45
2024/02/13 03:48:10;;;;;;;;;;;;;;;17.99;46.94;99832.38;5025348;28;1910;-47
2024/02/13 03:50:36;;;;;;;;;;;;;;;17.11;47.58;99841.41;5018249;28;1102;-48
2024/02/13 03:53:01;;;;;;;;;;;;;;;16.85;46.89;99835.47;5018696;28;1028;-47
2024/02/13 03:55:27;;;;;;;;;;;;;;;17.57;47.28;99842.53;5017091;28;1055;-46
2024/02/13 03:57:53;;;;;;;;;;;;;;;18.02;46.81;99842.81;5030554;28;1068;-47
2024/02/13 04:00:19;;;;;;;;;;;;;;;17.20;47.88;99838.78;5018573;28;918;-46
2024/02/13 04:02:45;;;;;;;;;;;;;;;16.88;47.20;99846.69;5018064;28;1136;-44
2024/02/13 04:05:12;;;;;;;;;;;;;;;18.42;46.46;99850.50;5023443;28;1060;-44
2024/02/13 04:07:38;;;;;;;;;;;;;;;17.34;47.79;99850.63;5038131;28;1906;-48
2024/02/13 04:10:04;;;;;;;;;;;;;;;16.94;47.19;99847.41;5024379;28;1199;-44
2024/02/13 04:12:29;;;;;;;;;;;;;;;16.85;46.37;99843.72;5024571;28;1098;-44
2024/02/13 04:14:55;;;;;;;;;;;;;;;17.78;47.04;99854.78;5031336;28;1060;-45
2024/02/13 04:17:21;;;;;;;;;;;;;;;17.48;47.71;99856.16;5017905;28;1098;-48
2024/02/13 04:19:47;;;;;;;;;;;;;;;17.17;47.24;99850.38;5023510;28;1219;-43
2024/02/13 04:22:12;;;;;;;;;;;;;;;16.90;46.50;99846.38;5036944;28;1135;-45
2024/02/13 04:24:38;;;;;;;;;;;;;;;16.72;45.98;99851.56;5018356;28;1103;-46
2024/02/13 04:27:04;;;;;;;;;;;;;;;16.52;45.48;99846.38;5017561;28;1962;-46
2024/02/13 04:29:30;;;;;;;;;;;;;;;17.89;46.82;99857.31;5022570;28;1223;-44
2024/02/13 04:31:56;;;;;;;;;;;;;;;17.87;47.41;99851.34;5019680;28;1175;-49
2024/02/13 04:34:21;;;;;;;;;;;;;;;17.23;47.54;99844.47;5017525;28;1091;-47
2024/02/13 04:36:47;;;;;;;;;;;;;;;16.90;46.82;99844.47;5019153;28;1120;-46
2024/02/13 04:39:13;;;;;;;;;;;;;;;16.75;46.50;99844.69;5028858;28;1047;-48
2024/02/13 04:41:42;;;;;;;;;;;;;;;18.04;47.03;99850.75;5032271;28;1114;-46
2024/02/13 04:44:07;;;;;;;;;;;;;;;17.45;47.72;99851.25;5028534;28;1118;-54
2024/02/13 04:46:33;;;;;;;;;;;;;;;17.04;47.36;99846.44;5030364;28;1983;-52
2024/02/13 04:49:00;;;;;;;;;;;;;;;16.90;46.44;99857.38;5017480;28;1207;-51
2024/02/13 04:51:26;;;;;;;;;;;;;;;16.74;45.92;99862.25;5016715;28;1091;-48
2024/02/13 04:53:52;;;;;;;;;;;;;;;17.50;47.07;99870.44;5024868;28;1134;-47
2024/02/13 04:56:17;;;;;;;;;;;;;;;18.18;46.82;99872.75;5019577;28;1234;-47
2024/02/13 04:58:43;;;;;;;;;;;;;;;17.18;47.99;99885.78;5030524;28;1059;-49
2024/02/13 05:01:12;;;;;;;;;;;;;;;16.85;47.08;99882.16;5019880;28;1037;-44
2024/02/13 05:09:13;;;;;;;;;;;;;;;17.22;47.55;99897.81;5036574;28;1308;-47
2024/02/13 05:11:41;;;;;;;;;;;;;;;16.98;46.80;99905.31;5033578;28;1122;-47
2024/02/13 05:14:08;;;;;;;;;;;;;;;16.84;46.56;99902.47;5036397;28;1059;-45
2024/02/13 05:16:38;;;;;;;;;;;;;;;18.18;45.82;99912.09;5033460;28;1308;-47
2024/02/13 05:19:06;;;;;;;;;;;;;;;17.49;47.26;99906.44;5036338;28;1063;-47
2024/02/13 05:21:35;;;;;;;;;;;;;;;17.20;47.93;99910.22;5036220;28;1158;-49
2024/02/13 05:24:03;;;;;;;;;;;;;;;16.97;48.57;99909.19;5024259;28;892;-50
2024/02/13 05:26:29;;;;;;;;;;;;;;;16.75;48.97;99919.59;5032962;28;1918;-45
2024/02/13 05:28:56;;;;;;;;;;;;;;;16.67;49.32;99917.53;5035009;28;1068;-48
2024/02/13 05:31:23;;;;;;;;;;;;;;;16.47;49.59;99926.03;5024672;28;1187;-45
2024/02/13 05:33:49;;;;;;;;;;;;;;;16.32;50.02;99930.56;5034806;28;1066;-49
2024/02/13 05:36:16;;;;;;;;;;;;;;;16.19;50.25;99931.28;5021186;28;902;-49
2024/02/13 05:38:45;;;;;;;;;;;;;;;16.11;50.21;99940.16;5016470;28;1083;-45
2024/02/13 05:41:10;;;;;;;;;;;;;;;15.92;50.85;99932.66;5016834;28;1108;-46
2024/02/13 05:43:38;;;;;;;;;;;;;;;15.86;50.83;99944.78;5031763;28;1182;-46
2024/02/13 05:46:04;;;;;;;;;;;;;;;15.76;51.08;99953.09;5026474;28;1246;-46
2024/02/13 05:48:29;;;;;;;;;;;;;;;15.74;51.23;99958.84;5019791;28;1902;-46
2024/02/13 05:50:55;;;;;;;;;;;;;;;15.56;51.24;99958.44;5026740;28;1059;-47
2024/02/13 05:53:21;;;;;;;;;;;;;;;15.50;51.60;99965.06;5029570;28;1175;-50
2024/02/13 05:55:48;;;;;;;;;;;;;;;15.42;51.45;99965.69;5025070;28;1024;-48
2024/02/13 05:58:13;;;;;;;;;;;;;;;15.41;51.49;99964.03;5034018;28;1154;-50
2024/02/13 06:00:40;;;;;;;;;;;;;;;16.96;48.48;99963.28;5025901;28;1388;-48
2024/02/13 06:03:06;;;;;;;;;;;;;;;17.05;47.82;99958.75;5036459;28;1145;-45
2024/02/13 06:05:32;;;;;;;;;;;;;;;16.31;49.91;99967.34;5039061;28;1032;-46
2024/02/13 06:07:57;;;;;;;;;;;;;;;15.97;51.05;99970.19;5039343;28;1902;-50
2024/02/13 06:10:24;;;;;;;;;;;;;;;15.88;51.14;99972.75;5032460;28;1142;-47
2024/02/13 06:12:50;;;;;;;;;;;;;;;15.72;51.33;99970.09;5028167;28;1385;-50
2024/02/13 06:15:16;;;;;;;;;;;;;;;15.62;51.50;99978.41;5039950;28;1400;-46
2024/02/13 06:17:43;;;;;;;;;;;;;;;15.67;51.74;99975.63;5039746;28;1305;-45
2024/02/13 06:20:09;;;;;;;;;;;;;;;17.22;48.02;99979.41;5028415;28;1173;-45
2024/02/13 06:22:35;;;;;;;;;;;;;;;17.10;48.02;99983.41;5019699;28;1072;-47
2024/02/13 06:25:01;;;;;;;;;;;;;;;16.34;50.00;99980.50;5023050;28;1235;-47
2024/02/13 06:27:26;;;;;;;;;;;;;;;16.08;50.65;99974.47;5019625;28;1945;-45
2024/02/13 06:29:52;;;;;;;;;;;;;;;15.85;51.06;99981.53;5021953;28;1180;-49
2024/02/13 06:32:18;;;;;;;;;;;;;;;15.78;51.04;99986.50;5026934;28;1291;-47
2024/02/13 06:34:43;;;;;;;;;;;;;;;15.62;51.52;99981.13;5031948;28;1226;-48
2024/02/13 06:37:10;;;;;;;;;;;;;;;15.50;51.63;99983.41;5036017;28;953;-45
2024/02/13 06:39:36;;;;;;;;;;;;;;;16.99;48.23;99979.19;5035659;28;1393;-44
2024/02/13 06:42:02;;;;;;;;;;;;;;;17.26;47.37;99974.94;5034216;28;1439;-47
2024/02/13 06:44:28;;;;;;;;;;;;;;;16.39;49.55;99980.44;5026474;28;1163;-46
2024/02/13 06:46:54;;;;;;;;;;;;;;;16.08;50.43;99977.19;5025693;28;1970;-45
2024/02/13 06:49:20;;;;;;;;;;;;;;;15.91;50.69;99986.69;5021192;28;1320;-46
2024/02/13 06:51:46;;;;;;;;;;;;;;;15.71;51.31;99975.84;5019380;28;1230;-44
2024/02/13 06:54:11;;;;;;;;;;;;;;;15.51;51.91;99977.66;5032710;28;1230;-44
2024/02/13 06:56:38;;;;;;;;;;;;;;;15.99;50.97;99981.66;5039197;28;1079;-43
2024/02/13 06:59:03;;;;;;;;;;;;;;;17.42;47.21;99973.59;5025772;28;1126;-48
2024/02/13 07:01:29;;;;;;;;;;;;;;;16.76;48.85;99973.41;5019101;28;842;-47
2024/02/13 07:03:55;;;;;;;;;;;;;;;16.25;50.06;99968.53;5019432;28;1099;-44
2024/02/13 07:06:21;;;;;;;;;;;;;;;16.03;50.67;99967.13;5019194;28;1036;-48
2024/02/13 07:08:46;;;;;;;;;;;;;;;15.76;51.07;99975.81;5031872;28;1918;-50
2024/02/13 07:11:12;;;;;;;;;;;;;;;15.70;51.33;99980.53;5033269;28;1186;-44
2024/02/13 07:13:37;;;;;;;;;;;;;;;15.58;51.91;99971.84;5025082;28;1082;-45
2024/02/13 07:16:06;;;;;;;;;;;;;;;17.18;47.87;99978.34;5025295;28;1175;-46
2024/02/13 07:18:33;;;;;;;;;;;;;;;17.13;47.54;99970.22;5030786;28;1187;-48
2024/02/13 07:20:59;;;;;;;;;;;;;;;16.33;49.87;99967.88;5032341;28;1128;-45
2024/02/13 07:23:24;;;;;;;;;;;;;;;16.00;50.84;99962.19;5027384;28;1071;-43
2024/02/13 07:25:50;;;;;;;;;;;;;;;15.84;50.94;99969.75;5021410;28;938;-46
2024/02/13 07:28:16;;;;;;;;;;;;;;;15.67;51.36;99964.66;5033249;28;1980;-46
2024/02/13 07:30:41;;;;;;;;;;;;;;;15.57;51.56;99967.47;5019058;28;1203;-44
2024/02/13 07:33:07;;;;;;;;;;;;;;;16.14;50.50;99956.84;5027830;28;1412;-45
2024/02/13 07:35:32;;;;;;;;;;;;;;;17.49;46.97;99954.00;5035193;28;1340;-45
2024/02/13 07:37:58;;;;;;;;;;;;;;;16.79;48.56;99960.19;5023579;28;1155;-50
2024/02/13 07:40:24;;;;;;;;;;;;;;;16.23;49.87;99954.28;5025337;28;1218;-44
2024/02/13 07:42:49;;;;;;;;;;;;;;;15.97;50.90;99956.47;5036793;28;1123;-47
2024/02/13 07:45:15;;;;;;;;;;;;;;;15.80;51.21;99954.97;5029206;28;1036;-46
2024/02/13 07:47:41;;;;;;;;;;;;;;;15.72;51.25;99961.88;5024508;28;1961;-49
2024/02/13 07:50:09;;;;;;;;;;;;;;;15.48;51.68;99955.50;5025261;28;1159;-47
2024/02/13 07:52:35;;;;;;;;;;;;;;;16.66;49.40;99961.72;5032119;28;1132;-49
2024/02/13 07:55:04;;;;;;;;;;;;;;;17.76;46.59;99961.50;5024692;28;1167;-50
2024/02/13 07:57:30;;;;;;;;;;;;;;;16.75;48.97;99968.22;5018349;28;1163;-46
2024/02/13 07:59:56;;;;;;;;;;;;;;;16.23;50.33;99965.25;5019947;28;1056;-45
2024/02/13 08:02:28;;;;;;;;;;;;;;;16.01;50.75;99969.31;5036483;28;1234;-47
2024/02/13 08:04:53;;;;;;;;;;;;;;;15.80;51.35;99974.16;5035775;28;1324;-48
2024/02/13 08:07:19;;;;;;;;;;;;;;;15.59;51.86;99976.25;5034389;28;1905;-48
2024/02/13 08:09:45;;;;;;;;;;;;;;;15.49;51.86;99973.59;5022229;28;1206;-45
2024/02/13 08:12:12;;;;;;;;;;;;;;;16.77;49.07;99975.06;5029201;28;1672;-45
2024/02/13 08:14:38;;;;;;;;;;;;;;;17.60;46.79;99963.69;5035834;28;1774;-45
2024/02/13 08:17:06;;;;;;;;;;;;;;;16.53;49.50;99974.25;5027522;28;996;-50
2024/02/13 08:19:33;;;;;;;;;;;;;;;16.11;50.40;99973.88;5033177;28;1126;-47
2024/02/13 08:22:00;;;;;;;;;;;;;;;15.89;51.14;99975.19;5029908;28;1265;-47
2024/02/13 08:24:29;;;;;;;;;;;;;;;15.72;51.70;99981.06;5018016;28;1077;-45
2024/02/13 08:26:55;;;;;;;;;;;;;;;15.56;51.84;99974.88;5016641;28;1902;-45
2024/02/13 08:29:21;;;;;;;;;;;;;;;15.64;51.88;99976.22;5030294;28;1087;-51
2024/02/13 08:31:49;;;;;;;;;;;;;;;17.22;47.83;99971.16;5018165;28;1079;-48
2024/02/13 08:34:14;;;;;;;;;;;;;;;17.20;47.77;99970.66;5023341;28;1179;-51
2024/02/13 08:36:40;;;;;;;;;;;;;;;16.41;49.77;99975.47;5034028;28;1309;-48
2024/02/13 08:39:06;;;;;;;;;;;;;;;16.01;50.88;99976.72;5037548;28;1162;-47
2024/02/13 08:41:31;;;;;;;;;;;;;;;15.80;51.47;99973.38;5032262;28;1269;-48
2024/02/13 08:43:57;;;;;;;;;;;;;;;15.66;51.72;99990.44;5032813;28;1154;-47
2024/02/13 08:46:23;;;;;;;;;;;;;;;15.43;52.11;99981.03;5028344;28;1494;-46
2024/02/13 08:48:50;;;;;;;;;;;;;;;15.46;51.99;99988.66;5021736;28;1981;-46
2024/02/13 08:51:16;;;;;;;;;;;;;;;16.96;48.83;99979.78;5024810;28;1298;-52
2024/02/13 08:53:42;;;;;;;;;;;;;;;17.29;47.64;99990.84;5025170;28;1294;-52
2024/02/13 08:56:08;;;;;;;;;;;;;;;16.33;49.91;99986.28;5019175;28;1357;-50
2024/02/13 08:58:34;;;;;;;;;;;;;;;16.04;50.87;99989.84;5025547;28;1328;-50
2024/02/13 09:01:00;;;;;;;;;;;;;;;15.82;51.60;99998.56;5025517;28;1178;-47
2024/02/13 09:03:26;;;;;;;;;;;;;;;15.65;51.70;99991.53;5025978;28;1329;-48
2024/02/13 09:05:51;;;;;;;;;;;;;;;15.49;52.03;99990.03;5028064;28;1592;-47
2024/02/13 09:08:17;;;;;;;;;;;;;;;16.73;49.26;99995.97;5030367;28;1977;-50
2024/02/13 09:10:42;;;;;;;;;;;;;;;17.43;47.21;99996.41;5025920;28;1086;-48
2024/02/13 09:13:08;;;;;;;;;;;;;;;16.39;50.04;99991.41;5031808;28;1083;-48
2024/02/13 09:15:34;;;;;;;;;;;;;;;16.01;51.05;99994.00;5036626;28;1095;-47
2024/02/13 09:17:59;;;;;;;;;;;;;;;15.83;51.44;99986.50;5032192;28;1021;-50
2024/02/13 09:20:25;;;;;;;;;;;;;;;15.64;52.11;99992.66;5025628;28;1115;-46
2024/02/13 09:22:51;;;;;;;;;;;;;;;15.52;52.29;99993.00;5031651;28;1124;-48
2024/02/13 09:25:17;;;;;;;;;;;;;;;15.39;52.42;99994.47;5027032;28;1059;-44
2024/02/13 09:27:50;;;;;;;;;;;;;;;16.60;49.82;99988.44;5019983;28;1905;-49
2024/02/13 09:30:16;;;;;;;;;;;;;;;17.35;47.82;99984.16;5032255;28;1206;-49
2024/02/13 09:32:42;;;;;;;;;;;;;;;16.34;50.04;99977.75;5028598;28;1047;-47
2024/02/13 09:35:08;;;;;;;;;;;;;;;16.05;51.10;99995.03;5032661;28;1091;-49
2024/02/13 09:37:39;;;;;;;;;;;;;;;15.83;51.71;99984.56;5029823;28;1221;-46
2024/02/13 09:40:14;;;;;;;;;;;;;;;15.56;52.41;99982.28;5018445;28;953;-48
2024/02/13 09:42:43;;;;;;;;;;;;;;;15.45;52.43;99988.97;5024780;28;1168;-47
2024/02/13 09:45:09;;;;;;;;;;;;;;;16.26;50.79;99986.63;5019855;28;1186;-45
2024/02/13 09:47:36;;;;;;;;;;;;;;;17.48;47.52;99985.34;5016086;28;1906;-47
2024/02/13 09:50:02;;;;;;;;;;;;;;;16.51;49.85;99977.28;5023615;28;1051;-47
2024/02/13 09:52:29;;;;;;;;;;;;;;;16.04;51.16;99981.63;5014614;28;1053;-47
2024/02/13 09:54:56;;;;;;;;;;;;;;;15.81;51.82;99977.72;5045346;28;1406;-49
2024/02/13 09:57:22;;;;;;;;;;;;;;;15.63;51.98;99980.03;5034403;28;2549;-46
2024/02/13 09:59:47;;;;;;;;;;;;;;;15.44;52.61;99976.34;5022812;28;1058;-46
2024/02/13 10:02:13;;;;;;;;;;;;;;;15.99;51.52;99966.06;5024902;28;906;-47
2024/02/13 10:04:39;;;;;;;;;;;;;;;17.38;47.73;99963.53;5029018;28;1080;-47
2024/02/13 10:07:05;;;;;;;;;;;;;;;16.95;48.80;99966.34;5023105;28;1965;-43
2024/02/13 10:09:32;;;;;;;;;;;;;;;16.32;50.26;99966.25;5016331;28;1052;-46
2024/02/13 10:12:09;;;;;;;;;;;;;;;15.99;51.36;99965.22;5015788;28;1090;-47
2024/02/13 10:14:34;;;;;;;;;;;;;;;15.72;51.92;99964.63;5023787;28;1056;-46
2024/02/13 10:17:10;;;;;;;;;;;;;;;15.56;52.22;99963.13;5016144;28;973;-45
2024/02/13 10:19:37;;;;;;;;;;;;;;;15.42;52.51;99956.63;5017074;28;1043;-44
2024/02/13 10:22:05;;;;;;;;;;;;;;;16.56;49.86;99948.97;5033541;28;1379;-45
2024/02/13 10:24:31;;;;;;;;;;;;;;;17.44;47.41;99951.31;5016579;28;1103;-46
2024/02/13 10:26:56;;;;;;;;;;;;;;;16.43;49.95;99947.75;5024880;28;2463;-46
2024/02/13 10:29:22;;;;;;;;;;;;;;;16.00;51.24;99944.94;5021416;28;1527;-46
2024/02/13 10:31:50;;;;;;;;;;;;;;;15.72;51.70;99944.59;5025149;28;1312;-45
2024/02/13 10:37:02;;;;;;;;;;;;;;;15.56;52.34;99947.47;5021906;28;1381;-49
2024/02/13 10:39:27;;;;;;;;;;;;;;;17.13;48.56;99943.56;5026925;28;1056;-45
2024/02/13 10:42:33;;;;;;;;;;;;;;;;;;;;;
2024/02/13 10:44:59;;;;;;;;;;;;;;;16.11;50.83;99946.44;5012013;28;1454;-46
2024/02/13 10:47:41;;;;;;;;;;;;;;;;;;;;;
2024/02/13 10:50:07;;;;;;;;;;;;;;;15.65;52.14;99950.41;5025152;28;1167;-49
2024/02/13 10:53:00;;;;;;;;;;;;;;;15.55;52.31;99948.56;5032627;28;1378;-47
2024/02/13 10:55:36;;;;;;;;;;;;;;;15.35;52.63;99956.97;5027544;28;992;-48
2024/02/13 10:58:02;;;;;;;;;;;;;;;16.21;50.84;99943.59;5024002;28;2442;-51
2024/02/13 11:00:32;;;;;;;;;;;;;;;17.44;47.57;99932.06;5025979;28;993;-51
2024/02/13 11:03:00;;;;;;;;;;;;;;;16.72;49.25;99944.91;5017762;28;1211;-47
2024/02/13 11:05:28;;;;;;;;;;;;;;;16.10;50.95;99936.56;5021688;28;1120;-48
2024/02/13 11:07:54;;;;;;;;;;;;;;;15.85;51.44;99932.19;5032055;28;1906;-50
2024/02/13 11:10:24;;;;;;;;;;;;;;;15.58;52.02;99941.72;5018498;28;1068;-47
2024/02/13 11:12:52;;;;;;;;;;;;;;;15.50;52.54;99942.31;5029514;28;1329;-50
2024/02/13 11:15:18;;;;;;;;;;;;;;;15.49;52.24;99940.72;5025861;28;1247;-49
2024/02/13 11:17:44;;;;;;;;;;;;;;;16.85;49.13;99928.81;5018876;28;1025;-46
2024/02/13 11:20:10;;;;;;;;;;;;;;;16.98;48.75;99924.56;5031799;28;1008;-48
2024/02/13 11:22:37;;;;;;;;;;;;;;;16.21;50.43;99920.84;5021552;28;1009;-51
2024/02/13 11:25:06;;;;;;;;;;;;;;;15.86;51.64;99926.41;5018541;28;1052;-46
2024/02/13 11:27:31;;;;;;;;;;;;;;;15.62;52.00;99923.59;5024813;28;2572;-45
2024/02/13 11:29:58;;;;;;;;;;;;;;;15.45;52.29;99913.06;5035408;28;1120;-46
2024/02/13 11:32:28;;;;;;;;;;;;;;;15.44;52.36;99916.09;5032366;28;982;-48
2024/02/13 11:34:57;;;;;;;;;;;;;;;16.80;49.37;99917.91;5029200;28;1349;-46
2024/02/13 11:37:27;;;;;;;;;;;;;;;17.12;48.13;99908.13;5023436;28;1064;-46
2024/02/13 11:39:53;;;;;;;;;;;;;;;16.22;50.67;99914.25;5026097;28;868;-47
2024/02/13 11:42:19;;;;;;;;;;;;;;;15.83;51.54;99913.28;5028318;28;1123;-46
2024/02/13 11:44:48;;;;;;;;;;;;;;;15.72;51.68;99909.81;5027496;28;1350;-48
2024/02/13 11:47:24;;;;;;;;;;;;;;;15.64;52.01;99926.03;5025619;28;1926;-47
2024/02/13 11:49:50;;;;;;;;;;;;;;;15.50;52.34;99925.88;5029975;28;1507;-46
2024/02/13 11:52:16;;;;;;;;;;;;;;;17.05;48.68;99909.31;5028784;28;1261;-49
2024/02/13 11:54:43;;;;;;;;;;;;;;;16.95;48.54;99909.47;5029059;28;1151;-44
2024/02/13 11:57:12;;;;;;;;;;;;;;;16.16;50.55;99908.00;5025308;28;1931;-49
2024/02/13 11:59:37;;;;;;;;;;;;;;;15.91;51.24;99898.13;5022422;28;1061;-49
2024/02/13 12:02:13;;;;;;;;;;;;;;;15.77;51.52;99919.06;5037959;28;1352;-48
2024/02/13 12:04:43;;;;;;;;;;;;;;;15.54;52.30;99914.09;5019849;28;1005;-46
2024/02/13 12:07:11;;;;;;;;;;;;;;;15.43;52.49;99914.44;5036514;28;1917;-50
2024/02/13 12:09:37;;;;;;;;;;;;;;;15.62;52.20;99906.34;5031264;28;1297;-51
2024/02/13 12:12:04;;;;;;;;;;;;;;;17.17;48.33;99908.06;5035821;28;1012;-48
2024/02/13 12:14:29;;;;;;;;;;;;;;;16.85;48.79;99918.66;5027086;28;1171;-49
2024/02/13 12:17:06;;;;;;;;;;;;;;;16.08;50.63;99914.94;5018268;28;1278;-47
2024/02/13 12:19:35;;;;;;;;;;;;;;;15.84;51.17;99903.97;5020776;28;1035;-47
2024/02/13 12:22:08;;;;;;;;;;;;;;;15.68;51.72;99916.97;5017845;28;1120;-48
2024/02/13 12:24:34;;;;;;;;;;;;;;;15.47;52.34;99910.81;5025827;28;1373;-44
2024/02/13 12:27:00;;;;;;;;;;;;;;;15.40;52.45;99916.66;5024562;28;2596;-47
2024/02/13 12:29:26;;;;;;;;;;;;;;;15.51;52.13;99911.91;5030260;28;1032;-45
2024/02/13 12:31:52;;;;;;;;;;;;;;;16.98;48.74;99908.88;5017813;28;1215;-48
2024/02/13 12:34:18;;;;;;;;;;;;;;;16.73;49.08;99905.38;5035764;28;992;-46
2024/02/13 12:36:44;;;;;;;;;;;;;;;16.06;50.66;99899.88;5034337;28;1127;-46
2024/02/13 12:39:25;;;;;;;;;;;;;;;15.71;51.50;99905.44;5018515;28;1355;-49
2024/02/13 12:41:51;;;;;;;;;;;;;;;15.59;52.13;99918.69;5021426;28;1059;-47
2024/02/13 12:44:20;;;;;;;;;;;;;;;15.47;52.48;99912.75;5025471;28;1082;-48
2024/02/13 12:46:46;;;;;;;;;;;;;;;15.31;52.71;99907.41;5021093;28;1906;-46
2024/02/13 12:49:16;;;;;;;;;;;;;;;15.46;52.31;99916.59;5024425;28;1437;-48
2024/02/13 12:51:44;;;;;;;;;;;;;;;17.04;48.43;99904.97;5034005;28;1256;-50
2024/02/13 12:54:10;;;;;;;;;;;;;;;16.90;48.61;99906.78;5024423;28;1163;-49
2024/02/13 12:56:45;;;;;;;;;;;;;;;16.13;50.50;99911.34;5024131;28;1305;-55
2024/02/13 12:59:13;;;;;;;;;;;;;;;15.84;51.22;99912.19;5027703;28;1250;-46
2024/02/13 13:01:44;;;;;;;;;;;;;;;15.61;52.02;99912.91;5029872;28;1318;-44
2024/02/13 13:04:21;;;;;;;;;;;;;;;15.46;52.33;99917.44;5036522;28;1068;-49
2024/02/13 13:06:51;;;;;;;;;;;;;;;15.36;52.18;99912.03;5037044;28;1910;-49